sensor_id;sensor_type;location;lat;lon;timestamp;P1;durP1;ratioP1;P2;durP2;ratioP2
21480;SDS011;10902;48.158;8.634;2024-03-25T00:02:40;8.07;;;4.30;;
21480;SDS011;10902;48.158;8.634;2024-03-25T00:05:26;10.60;;;4.35;;
21480;SDS011;10902;48.158;8.634;2024-03-25T00:08:12;12.30;;;4.32;;
21480;SDS011;10902;48.158;8.634;2024-03-25T00:10:57;11.00;;;4.70;;
21480;SDS011;10902;48.158;8.634;2024-03-25T00:13:43;8.70;;;4.70;;
21480;SDS011;10902;48.158;8.634;2024-03-25T00:16:29;10.95;;;4.70;;
21480;SDS011;10902;48.158;8.634;2024-03-25T00:19:14;10.70;;;4.80;;
21480;SDS011;10902;48.158;8.634;2024-03-25T00:22:01;10.30;;;4.88;;
21480;SDS011;10902;48.158;8.634;2024-03-25T00:24:47;12.77;;;4.47;;
21480;SDS011;10902;48.158;8.634;2024-03-25T00:27:33;13.52;;;4.63;;
21480;SDS011;10902;48.158;8.634;2024-03-25T00:30:19;10.48;;;4.65;;
21480;SDS011;10902;48.158;8.634;2024-03-25T00:33:05;11.63;;;4.78;;
21480;SDS011;10902;48.158;8.634;2024-03-25T00:35:51;10.77;;;4.97;;
21480;SDS011;10902;48.158;8.634;2024-03-25T00:38:37;12.48;;;5.35;;
21480;SDS011;10902;48.158;8.634;2024-03-25T00:41:23;8.18;;;4.25;;
21480;SDS011;10902;48.158;8.634;2024-03-25T00:44:08;8.38;;;3.90;;
21480;SDS011;10902;48.158;8.634;2024-03-25T00:46:55;13.73;;;4.35;;
21480;SDS011;10902;48.158;8.634;2024-03-25T00:49:41;10.25;;;4.30;;
21480;SDS011;10902;48.158;8.634;2024-03-25T00:52:26;8.38;;;3.92;;
21480;SDS011;10902;48.158;8.634;2024-03-25T00:55:12;11.52;;;4.50;;
21480;SDS011;10902;48.158;8.634;2024-03-25T00:57:58;12.48;;;4.80;;
21480;SDS011;10902;48.158;8.634;2024-03-25T01:00:43;10.77;;;4.60;;
21480;SDS011;10902;48.158;8.634;2024-03-25T01:03:29;9.32;;;4.93;;
21480;SDS011;10902;48.158;8.634;2024-03-25T01:06:14;9.98;;;4.60;;
21480;SDS011;10902;48.158;8.634;2024-03-25T01:09:00;15.55;;;5.50;;
21480;SDS011;10902;48.158;8.634;2024-03-25T01:11:45;13.52;;;5.15;;
21480;SDS011;10902;48.158;8.634;2024-03-25T01:14:31;13.75;;;5.60;;
21480;SDS011;10902;48.158;8.634;2024-03-25T01:17:17;12.65;;;5.00;;
21480;SDS011;10902;48.158;8.634;2024-03-25T01:20:03;13.32;;;5.40;;
21480;SDS011;10902;48.158;8.634;2024-03-25T01:22:51;16.25;;;5.40;;
21480;SDS011;10902;48.158;8.634;2024-03-25T01:25:37;14.95;;;5.75;;
21480;SDS011;10902;48.158;8.634;2024-03-25T01:28:23;16.10;;;6.22;;
21480;SDS011;10902;48.158;8.634;2024-03-25T01:31:08;16.20;;;6.03;;
21480;SDS011;10902;48.158;8.634;2024-03-25T01:33:54;17.88;;;7.40;;
21480;SDS011;10902;48.158;8.634;2024-03-25T01:36:41;18.15;;;7.30;;
21480;SDS011;10902;48.158;8.634;2024-03-25T01:39:27;13.90;;;6.35;;
21480;SDS011;10902;48.158;8.634;2024-03-25T01:42:13;16.48;;;6.63;;
21480;SDS011;10902;48.158;8.634;2024-03-25T01:44:59;17.55;;;7.22;;
21480;SDS011;10902;48.158;8.634;2024-03-25T01:47:44;17.50;;;6.78;;
21480;SDS011;10902;48.158;8.634;2024-03-25T01:50:30;17.48;;;7.00;;
21480;SDS011;10902;48.158;8.634;2024-03-25T01:53:20;20.02;;;8.05;;
21480;SDS011;10902;48.158;8.634;2024-03-25T01:56:06;15.73;;;7.10;;
21480;SDS011;10902;48.158;8.634;2024-03-25T01:58:52;15.80;;;7.20;;
21480;SDS011;10902;48.158;8.634;2024-03-25T02:01:38;21.27;;;8.15;;
21480;SDS011;10902;48.158;8.634;2024-03-25T02:04:25;15.30;;;7.35;;
21480;SDS011;10902;48.158;8.634;2024-03-25T02:07:11;18.10;;;7.75;;
21480;SDS011;10902;48.158;8.634;2024-03-25T02:09:58;17.33;;;8.30;;
21480;SDS011;10902;48.158;8.634;2024-03-25T02:12:45;16.73;;;7.60;;
21480;SDS011;10902;48.158;8.634;2024-03-25T02:15:31;18.65;;;7.68;;
21480;SDS011;10902;48.158;8.634;2024-03-25T02:18:17;17.05;;;8.48;;
21480;SDS011;10902;48.158;8.634;2024-03-25T02:21:03;18.85;;;7.80;;
21480;SDS011;10902;48.158;8.634;2024-03-25T02:23:50;18.20;;;8.07;;
21480;SDS011;10902;48.158;8.634;2024-03-25T02:26:37;19.30;;;8.05;;
21480;SDS011;10902;48.158;8.634;2024-03-25T02:29:32;17.38;;;7.68;;
21480;SDS011;10902;48.158;8.634;2024-03-25T02:32:18;22.58;;;8.07;;
21480;SDS011;10902;48.158;8.634;2024-03-25T02:35:05;22.25;;;9.70;;
21480;SDS011;10902;48.158;8.634;2024-03-25T02:37:55;22.25;;;9.50;;
21480;SDS011;10902;48.158;8.634;2024-03-25T02:40:40;24.15;;;8.13;;
21480;SDS011;10902;48.158;8.634;2024-03-25T02:43:26;22.60;;;9.10;;
21480;SDS011;10902;48.158;8.634;2024-03-25T02:46:12;19.48;;;8.27;;
21480;SDS011;10902;48.158;8.634;2024-03-25T02:48:58;20.25;;;8.35;;
21480;SDS011;10902;48.158;8.634;2024-03-25T02:51:43;17.25;;;7.80;;
21480;SDS011;10902;48.158;8.634;2024-03-25T02:54:29;20.70;;;7.68;;
21480;SDS011;10902;48.158;8.634;2024-03-25T02:57:14;21.83;;;8.25;;
21480;SDS011;10902;48.158;8.634;2024-03-25T03:00:00;19.60;;;8.15;;
21480;SDS011;10902;48.158;8.634;2024-03-25T03:02:45;20.98;;;8.57;;
21480;SDS011;10902;48.158;8.634;2024-03-25T03:05:31;24.55;;;8.43;;
21480;SDS011;10902;48.158;8.634;2024-03-25T03:08:17;17.30;;;7.85;;
21480;SDS011;10902;48.158;8.634;2024-03-25T03:11:03;19.88;;;7.97;;
21480;SDS011;10902;48.158;8.634;2024-03-25T03:13:49;18.83;;;7.93;;
21480;SDS011;10902;48.158;8.634;2024-03-25T03:16:34;17.10;;;6.93;;
21480;SDS011;10902;48.158;8.634;2024-03-25T03:19:21;14.20;;;6.45;;
21480;SDS011;10902;48.158;8.634;2024-03-25T03:22:06;15.35;;;5.97;;
21480;SDS011;10902;48.158;8.634;2024-03-25T03:24:52;14.38;;;5.50;;
21480;SDS011;10902;48.158;8.634;2024-03-25T03:27:37;11.70;;;5.55;;
21480;SDS011;10902;48.158;8.634;2024-03-25T03:30:23;17.65;;;5.57;;
21480;SDS011;10902;48.158;8.634;2024-03-25T03:33:09;12.75;;;5.53;;
21480;SDS011;10902;48.158;8.634;2024-03-25T03:35:55;16.00;;;5.97;;
21480;SDS011;10902;48.158;8.634;2024-03-25T03:38:41;11.65;;;5.55;;
21480;SDS011;10902;48.158;8.634;2024-03-25T03:41:27;15.35;;;6.72;;
21480;SDS011;10902;48.158;8.634;2024-03-25T03:44:13;17.10;;;7.03;;
21480;SDS011;10902;48.158;8.634;2024-03-25T03:47:00;17.65;;;7.25;;
21480;SDS011;10902;48.158;8.634;2024-03-25T03:49:45;20.15;;;8.38;;
21480;SDS011;10902;48.158;8.634;2024-03-25T03:52:31;20.98;;;8.25;;
21480;SDS011;10902;48.158;8.634;2024-03-25T03:55:16;18.38;;;7.88;;
21480;SDS011;10902;48.158;8.634;2024-03-25T03:58:02;16.60;;;7.30;;
21480;SDS011;10902;48.158;8.634;2024-03-25T04:00:48;20.10;;;8.48;;
21480;SDS011;10902;48.158;8.634;2024-03-25T04:03:33;22.13;;;8.50;;
21480;SDS011;10902;48.158;8.634;2024-03-25T04:06:19;17.45;;;8.07;;
21480;SDS011;10902;48.158;8.634;2024-03-25T04:09:04;20.45;;;8.45;;
21480;SDS011;10902;48.158;8.634;2024-03-25T04:11:51;20.00;;;8.75;;
21480;SDS011;10902;48.158;8.634;2024-03-25T04:14:37;20.50;;;8.48;;
21480;SDS011;10902;48.158;8.634;2024-03-25T04:17:23;21.70;;;9.18;;
21480;SDS011;10902;48.158;8.634;2024-03-25T04:20:09;17.48;;;8.38;;
21480;SDS011;10902;48.158;8.634;2024-03-25T04:22:56;21.48;;;9.27;;
21480;SDS011;10902;48.158;8.634;2024-03-25T04:25:42;20.65;;;9.80;;
21480;SDS011;10902;48.158;8.634;2024-03-25T04:28:28;24.95;;;9.88;;
21480;SDS011;10902;48.158;8.634;2024-03-25T04:31:13;21.65;;;9.55;;
21480;SDS011;10902;48.158;8.634;2024-03-25T04:33:59;23.85;;;10.50;;
21480;SDS011;10902;48.158;8.634;2024-03-25T04:36:44;26.50;;;9.95;;
21480;SDS011;10902;48.158;8.634;2024-03-25T04:39:30;24.25;;;10.95;;
21480;SDS011;10902;48.158;8.634;2024-03-25T04:42:16;24.20;;;9.73;;
21480;SDS011;10902;48.158;8.634;2024-03-25T04:45:01;26.27;;;10.73;;
21480;SDS011;10902;48.158;8.634;2024-03-25T04:47:47;28.40;;;12.23;;
21480;SDS011;10902;48.158;8.634;2024-03-25T04:50:33;23.25;;;11.38;;
21480;SDS011;10902;48.158;8.634;2024-03-25T04:53:18;23.88;;;11.45;;
21480;SDS011;10902;48.158;8.634;2024-03-25T04:56:04;21.83;;;10.63;;
21480;SDS011;10902;48.158;8.634;2024-03-25T04:58:50;23.17;;;10.60;;
21480;SDS011;10902;48.158;8.634;2024-03-25T05:01:35;27.42;;;11.00;;
21480;SDS011;10902;48.158;8.634;2024-03-25T05:04:21;21.88;;;10.50;;
21480;SDS011;10902;48.158;8.634;2024-03-25T05:07:08;21.00;;;9.32;;
21480;SDS011;10902;48.158;8.634;2024-03-25T05:09:54;17.95;;;8.75;;
21480;SDS011;10902;48.158;8.634;2024-03-25T05:12:41;21.15;;;8.38;;
21480;SDS011;10902;48.158;8.634;2024-03-25T05:15:28;17.25;;;9.35;;
21480;SDS011;10902;48.158;8.634;2024-03-25T05:18:14;21.55;;;8.68;;
21480;SDS011;10902;48.158;8.634;2024-03-25T05:20:59;19.10;;;8.57;;
21480;SDS011;10902;48.158;8.634;2024-03-25T05:23:45;18.15;;;8.85;;
21480;SDS011;10902;48.158;8.634;2024-03-25T05:29:19;30.17;;;13.15;;
21480;SDS011;10902;48.158;8.634;2024-03-25T05:32:05;37.38;;;15.13;;
21480;SDS011;10902;48.158;8.634;2024-03-25T05:34:50;32.13;;;15.18;;
21480;SDS011;10902;48.158;8.634;2024-03-25T05:37:36;31.92;;;12.85;;
21480;SDS011;10902;48.158;8.634;2024-03-25T05:40:23;27.60;;;12.25;;
21480;SDS011;10902;48.158;8.634;2024-03-25T05:43:08;27.15;;;12.35;;
21480;SDS011;10902;48.158;8.634;2024-03-25T05:45:54;26.63;;;12.63;;
21480;SDS011;10902;48.158;8.634;2024-03-25T05:48:39;29.35;;;12.43;;
21480;SDS011;10902;48.158;8.634;2024-03-25T05:51:26;25.30;;;11.35;;
21480;SDS011;10902;48.158;8.634;2024-03-25T05:54:12;26.83;;;11.32;;
21480;SDS011;10902;48.158;8.634;2024-03-25T05:56:57;28.10;;;11.20;;
21480;SDS011;10902;48.158;8.634;2024-03-25T05:59:43;27.83;;;12.30;;
21480;SDS011;10902;48.158;8.634;2024-03-25T06:02:29;25.95;;;11.90;;
21480;SDS011;10902;48.158;8.634;2024-03-25T06:05:15;30.88;;;12.80;;
21480;SDS011;10902;48.158;8.634;2024-03-25T06:08:00;30.77;;;12.13;;
21480;SDS011;10902;48.158;8.634;2024-03-25T06:10:46;29.10;;;13.15;;
21480;SDS011;10902;48.158;8.634;2024-03-25T06:13:32;33.42;;;12.93;;
21480;SDS011;10902;48.158;8.634;2024-03-25T06:16:18;28.13;;;13.38;;
21480;SDS011;10902;48.158;8.634;2024-03-25T06:19:03;25.02;;;11.90;;
21480;SDS011;10902;48.158;8.634;2024-03-25T06:21:49;24.42;;;10.82;;
21480;SDS011;10902;48.158;8.634;2024-03-25T06:24:34;27.00;;;13.40;;
21480;SDS011;10902;48.158;8.634;2024-03-25T06:27:20;30.15;;;12.98;;
21480;SDS011;10902;48.158;8.634;2024-03-25T06:30:06;27.65;;;12.65;;
21480;SDS011;10902;48.158;8.634;2024-03-25T06:33:11;25.85;;;11.35;;
21480;SDS011;10902;48.158;8.634;2024-03-25T06:36:15;26.65;;;11.70;;
21480;SDS011;10902;48.158;8.634;2024-03-25T06:39:02;24.17;;;12.10;;
21480;SDS011;10902;48.158;8.634;2024-03-25T06:41:48;25.30;;;12.20;;
21480;SDS011;10902;48.158;8.634;2024-03-25T06:44:33;25.63;;;13.05;;
21480;SDS011;10902;48.158;8.634;2024-03-25T06:47:19;27.45;;;12.82;;
21480;SDS011;10902;48.158;8.634;2024-03-25T06:50:04;26.73;;;12.50;;
21480;SDS011;10902;48.158;8.634;2024-03-25T06:52:50;28.08;;;13.27;;
21480;SDS011;10902;48.158;8.634;2024-03-25T06:55:36;26.42;;;11.80;;
21480;SDS011;10902;48.158;8.634;2024-03-25T06:58:25;24.98;;;12.20;;
21480;SDS011;10902;48.158;8.634;2024-03-25T07:01:11;28.25;;;12.98;;
21480;SDS011;10902;48.158;8.634;2024-03-25T07:03:57;26.17;;;12.23;;
21480;SDS011;10902;48.158;8.634;2024-03-25T07:06:42;25.30;;;12.55;;
21480;SDS011;10902;48.158;8.634;2024-03-25T07:09:28;21.05;;;11.45;;
21480;SDS011;10902;48.158;8.634;2024-03-25T07:12:14;23.10;;;11.38;;
21480;SDS011;10902;48.158;8.634;2024-03-25T07:14:59;24.80;;;11.20;;
21480;SDS011;10902;48.158;8.634;2024-03-25T07:17:45;19.75;;;10.18;;
21480;SDS011;10902;48.158;8.634;2024-03-25T07:20:31;25.95;;;12.77;;
21480;SDS011;10902;48.158;8.634;2024-03-25T07:23:17;23.58;;;12.43;;
21480;SDS011;10902;48.158;8.634;2024-03-25T07:26:02;24.17;;;12.50;;
21480;SDS011;10902;48.158;8.634;2024-03-25T07:28:48;22.15;;;11.75;;
21480;SDS011;10902;48.158;8.634;2024-03-25T07:31:34;23.05;;;12.77;;
21480;SDS011;10902;48.158;8.634;2024-03-25T07:34:19;20.83;;;11.18;;
21480;SDS011;10902;48.158;8.634;2024-03-25T07:37:05;20.00;;;10.32;;
21480;SDS011;10902;48.158;8.634;2024-03-25T07:39:50;23.52;;;10.50;;
21480;SDS011;10902;48.158;8.634;2024-03-25T07:42:36;22.92;;;11.40;;
21480;SDS011;10902;48.158;8.634;2024-03-25T07:45:22;18.60;;;10.95;;
21480;SDS011;10902;48.158;8.634;2024-03-25T07:48:08;21.20;;;10.55;;
21480;SDS011;10902;48.158;8.634;2024-03-25T07:50:53;17.98;;;9.95;;
21480;SDS011;10902;48.158;8.634;2024-03-25T07:53:39;23.92;;;11.27;;
21480;SDS011;10902;48.158;8.634;2024-03-25T07:56:26;18.33;;;10.20;;
21480;SDS011;10902;48.158;8.634;2024-03-25T07:59:11;21.45;;;10.80;;
21480;SDS011;10902;48.158;8.634;2024-03-25T08:01:57;15.15;;;9.00;;
21480;SDS011;10902;48.158;8.634;2024-03-25T08:04:42;14.95;;;8.68;;
21480;SDS011;10902;48.158;8.634;2024-03-25T08:07:28;15.30;;;8.32;;
21480;SDS011;10902;48.158;8.634;2024-03-25T08:10:14;13.32;;;8.05;;
21480;SDS011;10902;48.158;8.634;2024-03-25T08:13:00;15.93;;;8.23;;
21480;SDS011;10902;48.158;8.634;2024-03-25T08:15:45;13.25;;;8.20;;
21480;SDS011;10902;48.158;8.634;2024-03-25T08:18:31;21.77;;;8.15;;
21480;SDS011;10902;48.158;8.634;2024-03-25T08:21:17;13.00;;;7.82;;
21480;SDS011;10902;48.158;8.634;2024-03-25T08:24:02;13.68;;;6.80;;
21480;SDS011;10902;48.158;8.634;2024-03-25T08:26:48;13.98;;;7.38;;
21480;SDS011;10902;48.158;8.634;2024-03-25T08:29:34;12.63;;;6.60;;
21480;SDS011;10902;48.158;8.634;2024-03-25T08:32:19;11.85;;;6.00;;
21480;SDS011;10902;48.158;8.634;2024-03-25T08:35:05;9.15;;;5.40;;
21480;SDS011;10902;48.158;8.634;2024-03-25T08:37:51;9.95;;;6.45;;
21480;SDS011;10902;48.158;8.634;2024-03-25T08:40:37;9.55;;;5.28;;
21480;SDS011;10902;48.158;8.634;2024-03-25T08:43:22;8.50;;;4.88;;
21480;SDS011;10902;48.158;8.634;2024-03-25T08:46:08;9.07;;;4.50;;
21480;SDS011;10902;48.158;8.634;2024-03-25T08:48:53;8.23;;;4.30;;
21480;SDS011;10902;48.158;8.634;2024-03-25T08:51:39;7.60;;;4.15;;
21480;SDS011;10902;48.158;8.634;2024-03-25T08:54:24;7.75;;;3.78;;
21480;SDS011;10902;48.158;8.634;2024-03-25T08:57:10;6.55;;;3.30;;
21480;SDS011;10902;48.158;8.634;2024-03-25T08:59:55;7.70;;;3.33;;
21480;SDS011;10902;48.158;8.634;2024-03-25T09:02:41;6.53;;;2.90;;
21480;SDS011;10902;48.158;8.634;2024-03-25T09:05:27;7.32;;;2.60;;
21480;SDS011;10902;48.158;8.634;2024-03-25T09:08:12;4.95;;;2.30;;
21480;SDS011;10902;48.158;8.634;2024-03-25T09:10:58;5.95;;;2.20;;
21480;SDS011;10902;48.158;8.634;2024-03-25T09:13:52;5.32;;;2.20;;
21480;SDS011;10902;48.158;8.634;2024-03-25T09:16:38;4.45;;;1.42;;
21480;SDS011;10902;48.158;8.634;2024-03-25T09:19:23;4.05;;;1.30;;
21480;SDS011;10902;48.158;8.634;2024-03-25T09:22:09;4.22;;;1.58;;
21480;SDS011;10902;48.158;8.634;2024-03-25T09:24:54;4.85;;;1.33;;
21480;SDS011;10902;48.158;8.634;2024-03-25T09:27:40;6.47;;;1.42;;
21480;SDS011;10902;48.158;8.634;2024-03-25T09:30:26;5.68;;;1.67;;
21480;SDS011;10902;48.158;8.634;2024-03-25T09:33:11;4.70;;;1.75;;
21480;SDS011;10902;48.158;8.634;2024-03-25T09:35:57;5.60;;;2.05;;
21480;SDS011;10902;48.158;8.634;2024-03-25T09:38:42;4.28;;;1.52;;
21480;SDS011;10902;48.158;8.634;2024-03-25T09:41:28;4.55;;;1.73;;
21480;SDS011;10902;48.158;8.634;2024-03-25T09:44:19;5.32;;;1.70;;
21480;SDS011;10902;48.158;8.634;2024-03-25T09:47:09;4.95;;;1.40;;
21480;SDS011;10902;48.158;8.634;2024-03-25T09:49:57;4.30;;;1.30;;
21480;SDS011;10902;48.158;8.634;2024-03-25T09:52:44;4.03;;;1.50;;
21480;SDS011;10902;48.158;8.634;2024-03-25T09:55:33;3.00;;;1.17;;
21480;SDS011;10902;48.158;8.634;2024-03-25T09:58:19;5.10;;;1.35;;
21480;SDS011;10902;48.158;8.634;2024-03-25T10:01:05;12.23;;;1.70;;
21480;SDS011;10902;48.158;8.634;2024-03-25T10:03:51;4.82;;;1.30;;
21480;SDS011;10902;48.158;8.634;2024-03-25T10:06:36;5.10;;;1.40;;
21480;SDS011;10902;48.158;8.634;2024-03-25T10:09:24;4.65;;;1.20;;
21480;SDS011;10902;48.158;8.634;2024-03-25T10:12:12;5.13;;;1.40;;
21480;SDS011;10902;48.158;8.634;2024-03-25T10:14:58;4.63;;;1.13;;
21480;SDS011;10902;48.158;8.634;2024-03-25T10:17:44;3.83;;;1.27;;
21480;SDS011;10902;48.158;8.634;2024-03-25T10:20:30;3.33;;;1.23;;
21480;SDS011;10902;48.158;8.634;2024-03-25T10:23:19;4.18;;;1.33;;
21480;SDS011;10902;48.158;8.634;2024-03-25T10:26:10;3.78;;;1.00;;
21480;SDS011;10902;48.158;8.634;2024-03-25T10:29:09;3.65;;;1.27;;
21480;SDS011;10902;48.158;8.634;2024-03-25T10:31:59;3.75;;;1.30;;
21480;SDS011;10902;48.158;8.634;2024-03-25T10:34:45;4.50;;;1.30;;
21480;SDS011;10902;48.158;8.634;2024-03-25T10:37:31;4.13;;;1.23;;
21480;SDS011;10902;48.158;8.634;2024-03-25T10:40:17;5.07;;;1.33;;
21480;SDS011;10902;48.158;8.634;2024-03-25T10:43:04;3.05;;;0.90;;
21480;SDS011;10902;48.158;8.634;2024-03-25T10:45:54;3.08;;;0.88;;
21480;SDS011;10902;48.158;8.634;2024-03-25T10:48:47;4.53;;;1.13;;
21480;SDS011;10902;48.158;8.634;2024-03-25T10:51:46;4.30;;;1.20;;
21480;SDS011;10902;48.158;8.634;2024-03-25T10:54:34;3.45;;;0.90;;
21480;SDS011;10902;48.158;8.634;2024-03-25T10:57:21;4.05;;;1.27;;
21480;SDS011;10902;48.158;8.634;2024-03-25T11:00:08;3.90;;;1.23;;
21480;SDS011;10902;48.158;8.634;2024-03-25T11:02:54;4.25;;;1.23;;
21480;SDS011;10902;48.158;8.634;2024-03-25T11:05:40;4.15;;;1.17;;
21480;SDS011;10902;48.158;8.634;2024-03-25T11:08:30;4.13;;;1.15;;
21480;SDS011;10902;48.158;8.634;2024-03-25T11:11:17;5.25;;;1.25;;
21480;SDS011;10902;48.158;8.634;2024-03-25T11:14:03;3.65;;;1.00;;
21480;SDS011;10902;48.158;8.634;2024-03-25T11:16:52;4.22;;;1.23;;
21480;SDS011;10902;48.158;8.634;2024-03-25T11:19:38;3.90;;;1.10;;
21480;SDS011;10902;48.158;8.634;2024-03-25T11:22:24;4.57;;;1.20;;
21480;SDS011;10902;48.158;8.634;2024-03-25T11:25:11;3.28;;;1.20;;
21480;SDS011;10902;48.158;8.634;2024-03-25T11:27:58;4.22;;;1.23;;
21480;SDS011;10902;48.158;8.634;2024-03-25T11:30:43;4.18;;;1.23;;
21480;SDS011;10902;48.158;8.634;2024-03-25T11:33:29;4.28;;;1.42;;
21480;SDS011;10902;48.158;8.634;2024-03-25T11:36:15;4.05;;;1.30;;
21480;SDS011;10902;48.158;8.634;2024-03-25T11:39:03;3.25;;;1.20;;
21480;SDS011;10902;48.158;8.634;2024-03-25T11:41:50;3.75;;;1.25;;
21480;SDS011;10902;48.158;8.634;2024-03-25T11:44:37;3.67;;;1.15;;
21480;SDS011;10902;48.158;8.634;2024-03-25T11:47:23;3.10;;;1.00;;
21480;SDS011;10902;48.158;8.634;2024-03-25T11:50:09;2.92;;;0.90;;
21480;SDS011;10902;48.158;8.634;2024-03-25T11:52:59;3.13;;;0.82;;
21480;SDS011;10902;48.158;8.634;2024-03-25T11:55:47;3.40;;;1.00;;
21480;SDS011;10902;48.158;8.634;2024-03-25T11:58:33;3.38;;;0.93;;
21480;SDS011;10902;48.158;8.634;2024-03-25T12:01:19;4.45;;;0.85;;
21480;SDS011;10902;48.158;8.634;2024-03-25T12:04:17;2.80;;;0.90;;
21480;SDS011;10902;48.158;8.634;2024-03-25T12:07:03;5.55;;;1.33;;
21480;SDS011;10902;48.158;8.634;2024-03-25T12:09:49;2.83;;;0.77;;
21480;SDS011;10902;48.158;8.634;2024-03-25T12:12:53;2.40;;;0.80;;
21480;SDS011;10902;48.158;8.634;2024-03-25T12:15:40;2.22;;;0.60;;
21480;SDS011;10902;48.158;8.634;2024-03-25T12:18:25;2.97;;;0.80;;
21480;SDS011;10902;48.158;8.634;2024-03-25T12:21:11;4.00;;;0.90;;
21480;SDS011;10902;48.158;8.634;2024-03-25T12:23:56;4.57;;;1.00;;
21480;SDS011;10902;48.158;8.634;2024-03-25T12:26:43;3.15;;;0.80;;
21480;SDS011;10902;48.158;8.634;2024-03-25T12:29:29;3.40;;;1.08;;
21480;SDS011;10902;48.158;8.634;2024-03-25T12:32:15;3.55;;;0.93;;
21480;SDS011;10902;48.158;8.634;2024-03-25T12:35:01;4.05;;;1.00;;
21480;SDS011;10902;48.158;8.634;2024-03-25T12:37:49;3.38;;;1.00;;
21480;SDS011;10902;48.158;8.634;2024-03-25T12:40:34;2.55;;;0.73;;
21480;SDS011;10902;48.158;8.634;2024-03-25T12:43:20;2.33;;;0.68;;
21480;SDS011;10902;48.158;8.634;2024-03-25T12:46:06;2.38;;;0.80;;
21480;SDS011;10902;48.158;8.634;2024-03-25T12:48:51;4.10;;;1.10;;
21480;SDS011;10902;48.158;8.634;2024-03-25T12:51:37;3.50;;;0.90;;
21480;SDS011;10902;48.158;8.634;2024-03-25T12:54:22;2.70;;;0.70;;
21480;SDS011;10902;48.158;8.634;2024-03-25T12:57:08;2.85;;;0.65;;
21480;SDS011;10902;48.158;8.634;2024-03-25T12:59:54;2.88;;;0.90;;
21480;SDS011;10902;48.158;8.634;2024-03-25T13:02:39;2.78;;;0.70;;
21480;SDS011;10902;48.158;8.634;2024-03-25T13:05:25;3.10;;;0.73;;
21480;SDS011;10902;48.158;8.634;2024-03-25T13:08:11;4.00;;;0.80;;
21480;SDS011;10902;48.158;8.634;2024-03-25T13:10:56;2.40;;;0.52;;
21480;SDS011;10902;48.158;8.634;2024-03-25T13:13:42;2.70;;;0.68;;
21480;SDS011;10902;48.158;8.634;2024-03-25T13:16:27;3.75;;;0.70;;
21480;SDS011;10902;48.158;8.634;2024-03-25T13:19:13;2.70;;;0.82;;
21480;SDS011;10902;48.158;8.634;2024-03-25T13:21:59;2.60;;;0.75;;
21480;SDS011;10902;48.158;8.634;2024-03-25T13:24:44;4.32;;;1.00;;
21480;SDS011;10902;48.158;8.634;2024-03-25T13:27:30;3.08;;;0.60;;
21480;SDS011;10902;48.158;8.634;2024-03-25T13:30:16;3.05;;;0.60;;
21480;SDS011;10902;48.158;8.634;2024-03-25T13:33:01;4.47;;;0.90;;
21480;SDS011;10902;48.158;8.634;2024-03-25T13:35:47;4.82;;;0.93;;
21480;SDS011;10902;48.158;8.634;2024-03-25T13:38:33;2.80;;;0.70;;
21480;SDS011;10902;48.158;8.634;2024-03-25T13:41:18;2.95;;;0.80;;
21480;SDS011;10902;48.158;8.634;2024-03-25T13:44:07;2.85;;;0.70;;
21480;SDS011;10902;48.158;8.634;2024-03-25T13:46:53;3.53;;;0.82;;
21480;SDS011;10902;48.158;8.634;2024-03-25T13:49:39;5.20;;;1.20;;
21480;SDS011;10902;48.158;8.634;2024-03-25T13:52:25;3.78;;;0.80;;
21480;SDS011;10902;48.158;8.634;2024-03-25T13:55:10;2.88;;;0.80;;
21480;SDS011;10902;48.158;8.634;2024-03-25T13:57:56;4.90;;;1.05;;
21480;SDS011;10902;48.158;8.634;2024-03-25T14:00:41;4.30;;;1.00;;
21480;SDS011;10902;48.158;8.634;2024-03-25T14:03:27;3.38;;;0.80;;
21480;SDS011;10902;48.158;8.634;2024-03-25T14:06:12;2.60;;;0.73;;
21480;SDS011;10902;48.158;8.634;2024-03-25T14:09:02;5.68;;;1.05;;
21480;SDS011;10902;48.158;8.634;2024-03-25T14:11:50;3.78;;;0.80;;
21480;SDS011;10902;48.158;8.634;2024-03-25T14:14:36;3.40;;;0.85;;
21480;SDS011;10902;48.158;8.634;2024-03-25T14:17:21;2.80;;;0.90;;
21480;SDS011;10902;48.158;8.634;2024-03-25T14:20:07;3.00;;;0.80;;
21480;SDS011;10902;48.158;8.634;2024-03-25T14:22:53;3.63;;;0.98;;
21480;SDS011;10902;48.158;8.634;2024-03-25T14:25:40;3.15;;;1.08;;
21480;SDS011;10902;48.158;8.634;2024-03-25T14:28:25;3.92;;;0.77;;
21480;SDS011;10902;48.158;8.634;2024-03-25T14:31:11;3.92;;;0.90;;
21480;SDS011;10902;48.158;8.634;2024-03-25T14:33:57;2.47;;;0.75;;
21480;SDS011;10902;48.158;8.634;2024-03-25T14:36:43;3.95;;;0.90;;
21480;SDS011;10902;48.158;8.634;2024-03-25T14:39:30;3.20;;;0.90;;
21480;SDS011;10902;48.158;8.634;2024-03-25T14:42:16;3.78;;;1.02;;
21480;SDS011;10902;48.158;8.634;2024-03-25T14:45:01;3.15;;;1.05;;
21480;SDS011;10902;48.158;8.634;2024-03-25T14:47:47;2.13;;;0.52;;
21480;SDS011;10902;48.158;8.634;2024-03-25T14:50:33;2.65;;;0.75;;
21480;SDS011;10902;48.158;8.634;2024-03-25T14:53:18;1.92;;;0.68;;
21480;SDS011;10902;48.158;8.634;2024-03-25T14:56:04;3.13;;;0.82;;
21480;SDS011;10902;48.158;8.634;2024-03-25T14:58:49;4.25;;;1.05;;
21480;SDS011;10902;48.158;8.634;2024-03-25T15:01:35;2.72;;;0.70;;
21480;SDS011;10902;48.158;8.634;2024-03-25T15:04:22;2.78;;;0.68;;
21480;SDS011;10902;48.158;8.634;2024-03-25T15:07:08;2.78;;;0.70;;
21480;SDS011;10902;48.158;8.634;2024-03-25T15:09:53;3.85;;;1.10;;
21480;SDS011;10902;48.158;8.634;2024-03-25T15:12:39;2.67;;;0.70;;
21480;SDS011;10902;48.158;8.634;2024-03-25T15:15:24;2.22;;;0.60;;
21480;SDS011;10902;48.158;8.634;2024-03-25T15:18:10;2.90;;;0.80;;
21480;SDS011;10902;48.158;8.634;2024-03-25T15:21:02;4.15;;;1.00;;
21480;SDS011;10902;48.158;8.634;2024-03-25T15:23:48;3.40;;;0.80;;
21480;SDS011;10902;48.158;8.634;2024-03-25T15:26:34;2.60;;;0.88;;
21480;SDS011;10902;48.158;8.634;2024-03-25T15:29:19;2.40;;;0.82;;
21480;SDS011;10902;48.158;8.634;2024-03-25T15:32:05;1.80;;;0.60;;
21480;SDS011;10902;48.158;8.634;2024-03-25T15:34:51;3.20;;;0.88;;
21480;SDS011;10902;48.158;8.634;2024-03-25T15:37:36;3.72;;;1.00;;
21480;SDS011;10902;48.158;8.634;2024-03-25T15:40:22;3.08;;;0.93;;
21480;SDS011;10902;48.158;8.634;2024-03-25T15:43:07;3.90;;;0.98;;
21480;SDS011;10902;48.158;8.634;2024-03-25T15:45:54;4.18;;;0.98;;
21480;SDS011;10902;48.158;8.634;2024-03-25T15:48:40;2.55;;;0.82;;
21480;SDS011;10902;48.158;8.634;2024-03-25T15:51:25;2.88;;;0.70;;
21480;SDS011;10902;48.158;8.634;2024-03-25T15:54:11;4.65;;;0.95;;
21480;SDS011;10902;48.158;8.634;2024-03-25T15:56:57;2.28;;;0.65;;
21480;SDS011;10902;48.158;8.634;2024-03-25T15:59:42;3.00;;;0.82;;
21480;SDS011;10902;48.158;8.634;2024-03-25T16:02:28;3.83;;;0.77;;
21480;SDS011;10902;48.158;8.634;2024-03-25T16:05:13;3.70;;;0.90;;
21480;SDS011;10902;48.158;8.634;2024-03-25T16:07:59;3.10;;;0.90;;
21480;SDS011;10902;48.158;8.634;2024-03-25T16:10:45;2.55;;;0.77;;
21480;SDS011;10902;48.158;8.634;2024-03-25T16:13:30;3.70;;;0.93;;
21480;SDS011;10902;48.158;8.634;2024-03-25T16:16:17;3.53;;;0.82;;
21480;SDS011;10902;48.158;8.634;2024-03-25T16:19:02;2.50;;;0.90;;
21480;SDS011;10902;48.158;8.634;2024-03-25T16:21:49;3.80;;;0.88;;
21480;SDS011;10902;48.158;8.634;2024-03-25T16:24:35;3.65;;;1.20;;
21480;SDS011;10902;48.158;8.634;2024-03-25T16:27:23;5.15;;;1.10;;
21480;SDS011;10902;48.158;8.634;2024-03-25T16:30:09;2.13;;;0.73;;
21480;SDS011;10902;48.158;8.634;2024-03-25T16:32:55;2.97;;;0.88;;
21480;SDS011;10902;48.158;8.634;2024-03-25T16:35:41;3.53;;;1.00;;